createdAt,value
2018-05-17T00:01:49.824Z,18.11
2018-05-17T00:04:17.240Z,17.93
2018-05-17T00:06:44.639Z,17.91
2018-05-17T00:09:12.044Z,17.85
2018-05-17T00:11:39.482Z,17.46
2018-05-17T00:14:07.072Z,17.53
2018-05-17T00:16:34.456Z,17.80
2018-05-17T00:19:01.857Z,17.78
2018-05-17T00:21:29.566Z,17.00
2018-05-17T00:23:56.992Z,16.97
2018-05-17T00:26:24.446Z,17.27
2018-05-17T00:28:51.869Z,17.12
2018-05-17T00:31:19.247Z,17.18
2018-05-17T00:33:46.671Z,17.54
2018-05-17T00:36:14.106Z,17.64
2018-05-17T00:38:41.581Z,17.33
2018-05-17T00:41:08.976Z,17.67
2018-05-17T00:43:36.379Z,17.78
2018-05-17T00:46:03.797Z,17.37
2018-05-17T00:48:33.839Z,17.26
2018-05-17T00:51:01.725Z,17.30
2018-05-17T00:53:31.769Z,17.20
2018-05-17T00:55:59.160Z,17.22
2018-05-17T00:58:26.567Z,17.18
2018-05-17T01:00:53.985Z,17.23
2018-05-17T01:03:21.387Z,17.05
2018-05-17T01:05:48.790Z,17.00
2018-05-17T01:08:16.184Z,16.75
2018-05-17T01:10:43.591Z,16.92
2018-05-17T01:13:10.997Z,17.02
2018-05-17T01:15:38.405Z,17.38
2018-05-17T01:18:05.812Z,17.42
2018-05-17T01:20:33.219Z,17.45
2018-05-17T01:23:01.163Z,17.14
2018-05-17T01:25:28.561Z,17.04
2018-05-17T01:27:55.972Z,17.17
2018-05-17T01:30:23.405Z,17.26
2018-05-17T01:32:50.785Z,17.01
2018-05-17T01:35:18.178Z,17.23
2018-05-17T01:37:57.405Z,17.07
2018-05-17T01:40:25.177Z,17.00
2018-05-17T01:42:52.624Z,17.31
2018-05-17T01:45:20.019Z,17.27
2018-05-17T01:47:47.410Z,17.48
2018-05-17T01:50:14.812Z,17.38
2018-05-17T01:52:42.203Z,17.37
2018-05-17T01:55:09.675Z,17.45
2018-05-17T01:57:37.070Z,17.24
2018-05-17T02:00:04.489Z,17.24
2018-05-17T02:02:31.915Z,17.43
2018-05-17T02:04:59.324Z,17.44
2018-05-17T02:07:26.708Z,17.32
2018-05-17T02:09:54.113Z,17.05
2018-05-17T02:12:21.502Z,17.00
2018-05-17T02:14:48.895Z,16.93
2018-05-17T02:17:16.278Z,17.11
2018-05-17T02:19:43.679Z,17.15
2018-05-17T02:22:11.067Z,17.23
2018-05-17T02:24:38.488Z,17.19
2018-05-17T02:27:05.883Z,17.26
2018-05-17T02:29:33.288Z,17.29
2018-05-17T02:32:00.680Z,17.13
2018-05-17T02:34:28.075Z,17.21
2018-05-17T02:36:55.477Z,17.00
2018-05-17T02:39:22.872Z,17.05
2018-05-17T02:41:50.263Z,17.19
2018-05-17T02:44:17.659Z,17.11
2018-05-17T02:46:45.141Z,16.98
2018-05-17T02:49:12.519Z,16.95
2018-05-17T02:51:39.871Z,17.15
2018-05-17T02:54:07.384Z,16.96
2018-05-17T02:56:34.755Z,16.93
2018-05-17T02:59:02.371Z,16.98
2018-05-17T03:01:29.885Z,17.07
2018-05-17T03:03:57.310Z,17.04
2018-05-17T03:06:24.712Z,17.02
2018-05-17T03:08:52.128Z,16.98
2018-05-17T03:11:19.528Z,17.02
2018-05-17T03:13:46.928Z,17.00
2018-05-17T03:16:14.335Z,17.09
2018-05-17T03:18:41.761Z,17.15
2018-05-17T03:21:09.158Z,16.78
2018-05-17T03:23:36.552Z,16.66
2018-05-17T03:26:03.952Z,16.75
2018-05-17T03:28:32.357Z,16.67
2018-05-17T03:30:59.829Z,16.41
2018-05-17T03:33:27.296Z,16.24
2018-05-17T03:35:54.691Z,16.19
2018-05-17T03:38:22.116Z,16.25
2018-05-17T03:40:49.521Z,16.11
2018-05-17T03:43:16.916Z,16.11
2018-05-17T03:45:44.355Z,16.17
2018-05-17T03:48:11.743Z,16.09
2018-05-17T03:50:39.172Z,16.12
2018-05-17T03:53:06.635Z,16.17
2018-05-17T03:55:34.031Z,16.15
2018-05-17T03:58:01.436Z,16.23
2018-05-17T04:00:40.615Z,16.21
2018-05-17T04:03:19.905Z,16.30
2018-05-17T04:05:59.120Z,16.23
2018-05-17T04:08:26.541Z,16.37
2018-05-17T04:10:53.906Z,16.20
2018-05-17T04:13:21.289Z,16.04
2018-05-17T04:15:48.695Z,16.21
2018-05-17T04:18:16.082Z,16.22
2018-05-17T04:20:43.479Z,16.23
2018-05-17T04:23:10.872Z,16.27
2018-05-17T04:25:38.455Z,16.16
2018-05-17T04:28:05.858Z,16.11
2018-05-17T04:30:33.242Z,15.84
2018-05-17T04:33:00.685Z,15.95
2018-05-17T04:35:28.074Z,16.30
2018-05-17T04:37:55.461Z,16.29
2018-05-17T04:40:22.928Z,15.93
2018-05-17T04:42:50.265Z,16.06
2018-05-17T04:45:17.672Z,16.03
2018-05-17T04:47:45.067Z,16.09
2018-05-17T04:50:12.494Z,16.06
2018-05-17T04:52:39.944Z,15.98
2018-05-17T04:55:07.331Z,15.92
2018-05-17T04:57:34.711Z,15.89
2018-05-17T05:00:02.833Z,15.96
2018-05-17T05:02:30.456Z,15.83
2018-05-17T05:04:57.859Z,15.53
2018-05-17T05:07:25.255Z,15.74
2018-05-17T05:09:52.646Z,15.79
2018-05-17T05:12:20.034Z,15.97
2018-05-17T05:14:47.423Z,15.72
2018-05-17T05:17:14.813Z,15.64
2018-05-17T05:19:42.589Z,15.68
2018-05-17T05:22:10.331Z,15.73
2018-05-17T05:24:37.739Z,15.82
2018-05-17T05:27:05.131Z,15.73
2018-05-17T05:29:33.092Z,15.54
2018-05-17T05:32:00.528Z,15.67
2018-05-17T05:34:27.901Z,15.56
2018-05-17T05:36:55.297Z,15.70
2018-05-17T05:39:22.682Z,15.65
2018-05-17T05:41:50.079Z,15.72
2018-05-17T05:44:17.462Z,15.73
2018-05-17T05:46:44.866Z,15.90
2018-05-17T05:49:12.298Z,15.73
2018-05-17T05:51:39.659Z,15.61
2018-05-17T05:54:07.050Z,15.76
2018-05-17T05:56:34.478Z,15.68
2018-05-17T05:59:01.872Z,15.66
2018-05-17T06:01:29.278Z,15.58
2018-05-17T06:03:56.687Z,15.73
2018-05-17T06:06:24.082Z,15.66
2018-05-17T06:08:51.462Z,15.60
2018-05-17T06:11:18.860Z,15.79
2018-05-17T06:13:46.241Z,15.86
2018-05-17T06:16:13.645Z,15.74
2018-05-17T06:18:41.343Z,15.64
2018-05-17T06:21:08.751Z,15.66
2018-05-17T06:23:36.128Z,15.65
2018-05-17T06:26:04.305Z,15.79
2018-05-17T06:28:31.711Z,15.74
2018-05-17T06:30:59.097Z,15.75
2018-05-17T06:33:26.483Z,15.72
2018-05-17T06:35:53.892Z,15.84
2018-05-17T06:38:21.297Z,15.77
2018-05-17T06:40:48.696Z,15.60
2018-05-17T06:43:16.073Z,15.91
2018-05-17T06:45:43.465Z,15.98
2018-05-17T06:48:10.842Z,15.85
2018-05-17T06:50:38.236Z,15.80
2018-05-17T06:53:05.612Z,15.84
2018-05-17T06:55:33.419Z,16.02
2018-05-17T06:58:00.811Z,16.00
2018-05-17T07:00:28.229Z,16.18
2018-05-17T07:02:55.588Z,16.11
2018-05-17T07:05:22.971Z,16.18
2018-05-17T07:07:50.372Z,16.23
2018-05-17T07:10:17.772Z,16.27
2018-05-17T07:12:45.153Z,16.03
2018-05-17T07:15:12.542Z,15.89
2018-05-17T07:17:39.948Z,15.94
2018-05-17T07:20:07.449Z,15.97
2018-05-17T07:22:34.830Z,15.91
2018-05-17T07:25:02.307Z,15.89
2018-05-17T07:27:29.854Z,15.97
2018-05-17T07:29:57.410Z,16.00
2018-05-17T07:32:24.775Z,16.00
2018-05-17T07:34:52.147Z,16.02
2018-05-17T07:37:19.533Z,15.88
2018-05-17T07:39:46.939Z,16.19
2018-05-17T07:42:14.329Z,15.95
2018-05-17T07:44:41.708Z,16.18
2018-05-17T07:47:09.103Z,16.26
2018-05-17T07:49:36.465Z,16.17
2018-05-17T07:52:03.874Z,15.99
2018-05-17T07:54:31.259Z,15.92
2018-05-17T07:56:58.675Z,16.05
2018-05-17T07:59:26.065Z,15.87
2018-05-17T08:01:53.533Z,16.06
2018-05-17T08:04:20.830Z,16.08
2018-05-17T08:06:48.214Z,16.08
2018-05-17T08:09:15.594Z,16.22
2018-05-17T08:11:43.003Z,15.96
2018-05-17T08:14:10.391Z,15.96
2018-05-17T08:16:37.785Z,16.01
2018-05-17T08:19:05.181Z,16.14
2018-05-17T08:21:32.580Z,16.26
2018-05-17T08:23:59.968Z,16.28
2018-05-17T08:26:27.350Z,16.27
2018-05-17T08:28:54.795Z,16.29
2018-05-17T08:31:22.161Z,16.42
2018-05-17T08:33:49.537Z,16.72
2018-05-17T08:36:17.014Z,16.65
2018-05-17T08:38:44.307Z,16.82
2018-05-17T08:41:11.752Z,16.74
2018-05-17T08:43:39.132Z,16.78
2018-05-17T08:46:06.509Z,16.76
2018-05-17T08:48:34.038Z,16.72
2018-05-17T08:51:01.430Z,16.85
2018-05-17T08:53:28.825Z,16.91
2018-05-17T08:55:56.207Z,16.77
2018-05-17T08:58:23.616Z,17.11
2018-05-17T09:00:50.990Z,17.25
2018-05-17T09:03:18.375Z,17.36
2018-05-17T09:05:45.760Z,17.30
2018-05-17T09:08:13.147Z,17.46
2018-05-17T09:10:40.528Z,17.58
2018-05-17T09:13:07.937Z,17.61
2018-05-17T09:15:35.322Z,17.46
2018-05-17T09:18:02.715Z,17.27
2018-05-17T09:20:30.368Z,17.36
2018-05-17T09:22:57.661Z,17.19
2018-05-17T09:25:25.245Z,17.16
2018-05-17T09:27:52.635Z,17.53
2018-05-17T09:30:20.035Z,17.82
2018-05-17T09:32:47.424Z,18.09
2018-05-17T09:35:14.812Z,17.87
2018-05-17T09:37:42.195Z,18.31
2018-05-17T09:40:09.574Z,18.23
2018-05-17T09:42:36.984Z,18.29
2018-05-17T09:45:04.372Z,18.49
2018-05-17T09:47:31.849Z,18.60
2018-05-17T09:49:59.171Z,18.49
2018-05-17T09:52:26.554Z,18.23
2018-05-17T09:54:53.952Z,18.76
2018-05-17T09:57:21.317Z,19.05
2018-05-17T09:59:48.695Z,19.03
2018-05-17T10:02:16.079Z,19.19
2018-05-17T10:04:43.454Z,19.23
2018-05-17T10:07:10.864Z,19.02
2018-05-17T10:09:38.250Z,18.50
2018-05-17T10:12:06.091Z,18.90
2018-05-17T10:14:34.522Z,18.85
2018-05-17T10:17:01.827Z,18.77
2018-05-17T10:19:29.223Z,18.73
2018-05-17T10:21:56.595Z,18.57
2018-05-17T10:24:23.985Z,18.68
2018-05-17T10:26:52.306Z,19.24
2018-05-17T10:29:20.300Z,19.11
2018-05-17T10:31:47.669Z,19.25
2018-05-17T10:34:15.118Z,19.14
2018-05-17T10:36:42.492Z,18.98
2018-05-17T10:39:09.894Z,19.68
2018-05-17T10:41:37.271Z,19.42
2018-05-17T10:44:04.659Z,19.47
2018-05-17T10:46:32.340Z,19.77
2018-05-17T10:48:59.814Z,20.00
2018-05-17T10:51:27.136Z,19.81
2018-05-17T10:53:54.526Z,19.89
2018-05-17T10:56:21.931Z,19.94
2018-05-17T10:58:49.322Z,19.73
2018-05-17T11:01:16.713Z,20.38
2018-05-17T11:03:44.108Z,20.51
2018-05-17T11:06:11.509Z,19.49
2018-05-17T11:08:38.933Z,19.70
2018-05-17T11:11:06.335Z,19.54
2018-05-17T11:13:34.712Z,19.76
2018-05-17T11:16:02.100Z,20.02
2018-05-17T11:18:29.503Z,20.20
2018-05-17T11:20:56.905Z,20.35
2018-05-17T11:23:24.283Z,20.39
2018-05-17T11:25:51.757Z,20.30
2018-05-17T11:28:19.064Z,20.06
2018-05-17T11:30:46.456Z,19.86
2018-05-17T11:33:13.841Z,19.47
2018-05-17T11:35:41.246Z,19.67
2018-05-17T11:38:08.618Z,19.52
2018-05-17T11:40:36.004Z,19.27
2018-05-17T11:43:03.399Z,19.39
2018-05-17T11:45:30.788Z,19.57
2018-05-17T11:47:58.176Z,19.69
2018-05-17T11:50:25.580Z,19.75
2018-05-17T11:52:52.952Z,19.91
2018-05-17T11:55:20.359Z,19.70
2018-05-17T11:57:47.748Z,19.52
2018-05-17T12:00:15.514Z,19.52
2018-05-17T12:02:42.939Z,19.37
2018-05-17T12:05:10.281Z,19.36
2018-05-17T12:07:37.745Z,19.34
2018-05-17T12:10:05.046Z,19.44
2018-05-17T12:12:32.440Z,19.59
2018-05-17T12:14:59.846Z,19.67
2018-05-17T12:17:27.224Z,19.96
2018-05-17T12:19:54.617Z,19.96
2018-05-17T12:22:21.994Z,20.32
2018-05-17T12:24:49.584Z,20.46
2018-05-17T12:27:16.971Z,20.81
2018-05-17T12:29:44.377Z,21.30
2018-05-17T12:32:11.756Z,22.65
2018-05-17T12:34:39.191Z,21.96
2018-05-17T12:37:06.703Z,23.00
2018-05-17T12:39:34.163Z,23.44
2018-05-17T12:42:01.555Z,23.53
2018-05-17T12:44:29.047Z,23.91
2018-05-17T12:46:56.617Z,24.00
2018-05-17T12:49:24.027Z,23.94
2018-05-17T12:51:51.419Z,23.72
2018-05-17T12:54:18.805Z,23.80
2018-05-17T12:56:46.238Z,24.09
2018-05-17T12:59:13.580Z,24.47
2018-05-17T13:01:40.969Z,24.25
2018-05-17T13:04:08.363Z,24.05
2018-05-17T13:06:35.755Z,24.12
2018-05-17T13:09:03.137Z,24.58
2018-05-17T13:11:30.519Z,24.43
2018-05-17T13:13:57.899Z,24.66
2018-05-17T13:16:25.383Z,25.30
2018-05-17T13:18:52.759Z,25.65
2018-05-17T13:21:20.162Z,25.80
2018-05-17T13:23:47.556Z,26.16
2018-05-17T13:26:14.938Z,26.02
2018-05-17T13:28:42.323Z,26.08
2018-05-17T13:31:09.726Z,26.13
2018-05-17T13:33:37.130Z,25.99
2018-05-17T13:36:05.410Z,25.42
2018-05-17T13:38:32.790Z,26.27
2018-05-17T13:41:00.175Z,26.80
2018-05-17T13:43:27.561Z,26.06
2018-05-17T13:45:54.951Z,25.92
2018-05-17T13:48:22.342Z,26.19
2018-05-17T13:50:49.725Z,26.13
2018-05-17T13:53:17.122Z,25.90
2018-05-17T13:55:44.516Z,26.06
2018-05-17T13:58:11.903Z,25.76
2018-05-17T14:00:39.500Z,25.74
2018-05-17T14:03:06.934Z,25.59
2018-05-17T14:05:34.373Z,25.77
2018-05-17T14:08:01.769Z,24.68
2018-05-17T14:10:29.158Z,24.73
2018-05-17T14:12:56.955Z,24.45
2018-05-17T14:15:24.424Z,24.58
2018-05-17T14:17:51.739Z,24.16
2018-05-17T14:20:19.134Z,25.02
2018-05-17T14:22:46.524Z,25.34
2018-05-17T14:25:13.905Z,24.21
2018-05-17T14:27:41.314Z,24.73
2018-05-17T14:30:08.715Z,24.77
2018-05-17T14:32:36.094Z,25.09
2018-05-17T14:35:03.491Z,25.50
2018-05-17T14:37:30.944Z,25.96
2018-05-17T14:39:58.335Z,27.05
2018-05-17T14:42:25.734Z,26.95
2018-05-17T14:44:53.109Z,27.48
2018-05-17T14:47:20.488Z,27.58
2018-05-17T14:49:47.876Z,27.34
2018-05-17T14:52:15.268Z,28.33
2018-05-17T14:54:42.660Z,28.51
2018-05-17T14:57:10.041Z,28.21
2018-05-17T14:59:37.429Z,27.72
2018-05-17T15:02:05.723Z,28.00
2018-05-17T15:04:33.187Z,27.86
2018-05-17T15:07:00.578Z,28.39
2018-05-17T15:09:27.976Z,28.11
2018-05-17T15:11:55.391Z,27.51
2018-05-17T15:14:22.754Z,28.45
2018-05-17T15:16:50.145Z,27.77
2018-05-17T15:19:17.555Z,27.66
2018-05-17T15:21:45.024Z,27.51
2018-05-17T15:24:12.422Z,27.02
2018-05-17T15:26:39.812Z,27.81
2018-05-17T15:29:07.196Z,27.76
2018-05-17T15:31:34.763Z,27.64
2018-05-17T15:34:02.149Z,27.56
2018-05-17T15:36:29.596Z,27.11
2018-05-17T15:38:56.999Z,25.87
2018-05-17T15:41:24.400Z,26.14
2018-05-17T15:43:51.796Z,25.70
2018-05-17T15:46:19.183Z,25.38
2018-05-17T15:48:46.799Z,26.58
2018-05-17T15:51:14.229Z,27.84
2018-05-17T15:53:41.648Z,27.83
2018-05-17T15:56:09.028Z,28.23
2018-05-17T15:58:37.116Z,27.98
2018-05-17T16:01:05.317Z,28.70
2018-05-17T16:03:32.928Z,28.70
2018-05-17T16:06:00.594Z,27.83
2018-05-17T16:08:28.276Z,28.87
2018-05-17T16:10:55.706Z,28.09
2018-05-17T16:13:23.095Z,27.75
2018-05-17T16:15:50.487Z,26.86
2018-05-17T16:18:17.879Z,25.36
2018-05-17T16:20:45.267Z,25.88
2018-05-17T16:23:12.693Z,25.42
2018-05-17T16:25:40.093Z,24.24
2018-05-17T16:28:07.497Z,24.50
2018-05-17T16:30:34.895Z,24.02
2018-05-17T16:33:02.307Z,24.10
2018-05-17T16:35:29.717Z,24.07
2018-05-17T16:37:57.097Z,23.84
2018-05-17T16:40:24.503Z,23.87
2018-05-17T16:42:51.946Z,24.14
2018-05-17T16:45:19.283Z,23.48
2018-05-17T16:47:46.667Z,23.44
2018-05-17T16:50:14.108Z,23.16
2018-05-17T16:52:41.606Z,23.57
2018-05-17T16:55:08.879Z,23.59
2018-05-17T16:57:36.283Z,23.39
2018-05-17T17:00:03.663Z,23.29
2018-05-17T17:02:31.050Z,23.26
2018-05-17T17:04:58.660Z,23.03
2018-05-17T17:07:26.038Z,23.17
2018-05-17T17:09:53.668Z,23.01
2018-05-17T17:12:21.213Z,22.50
2018-05-17T17:14:48.588Z,22.65
2018-05-17T17:17:16.063Z,22.48
2018-05-17T17:19:43.458Z,22.11
2018-05-17T17:22:10.856Z,22.33
2018-05-17T17:24:38.234Z,22.18
2018-05-17T17:27:06.282Z,21.86
2018-05-17T17:29:33.773Z,21.86
2018-05-17T17:32:01.161Z,21.73
2018-05-17T17:34:28.556Z,21.72
2018-05-17T17:36:56.023Z,21.76
2018-05-17T17:39:23.398Z,21.74
2018-05-17T17:41:50.907Z,21.63
2018-05-17T17:44:18.299Z,21.89
2018-05-17T17:46:45.685Z,21.29
2018-05-17T17:49:13.071Z,21.31
2018-05-17T17:51:40.555Z,21.65
2018-05-17T17:54:08.012Z,21.69
2018-05-17T17:56:36.387Z,21.37
2018-05-17T17:59:03.768Z,21.28
2018-05-17T18:01:31.159Z,21.11
2018-05-17T18:03:58.546Z,21.27
2018-05-17T18:06:26.040Z,21.07
2018-05-17T18:08:53.428Z,21.03
2018-05-17T18:11:20.811Z,21.11
2018-05-17T18:13:48.197Z,20.64
2018-05-17T18:16:15.653Z,20.70
2018-05-17T18:18:43.037Z,20.66
2018-05-17T18:21:10.427Z,20.88
2018-05-17T18:23:37.800Z,20.66
2018-05-17T18:26:05.199Z,20.53
2018-05-17T18:28:32.596Z,20.43
2018-05-17T18:30:59.980Z,20.64
2018-05-17T18:33:27.451Z,20.64
2018-05-17T18:35:54.849Z,20.55
2018-05-17T18:38:22.230Z,20.52
2018-05-17T18:40:49.639Z,20.44
2018-05-17T18:43:17.088Z,20.25
2018-05-17T18:45:44.402Z,20.20
2018-05-17T18:48:11.791Z,20.18
2018-05-17T18:50:39.179Z,20.18
2018-05-17T18:53:06.685Z,20.11
2018-05-17T18:55:34.067Z,19.93
2018-05-17T18:58:01.452Z,20.11
2018-05-17T19:00:29.020Z,19.76
2018-05-17T19:02:56.418Z,19.77
2018-05-17T19:05:23.812Z,19.78
2018-05-17T19:07:51.543Z,19.79
2018-05-17T19:10:18.943Z,19.51
2018-05-17T19:12:46.346Z,19.56
2018-05-17T19:15:13.848Z,19.41
2018-05-17T19:17:41.271Z,19.44
2018-05-17T19:20:08.650Z,19.31
2018-05-17T19:22:36.768Z,19.32
2018-05-17T19:25:04.157Z,19.30
2018-05-17T19:27:31.547Z,19.36
2018-05-17T19:29:58.970Z,19.40
2018-05-17T19:32:26.713Z,19.28
2018-05-17T19:34:54.228Z,19.14
2018-05-17T19:37:21.738Z,18.91
2018-05-17T19:39:49.043Z,19.04
2018-05-17T19:42:16.424Z,19.03
2018-05-17T19:44:44.041Z,19.06
2018-05-17T19:47:11.430Z,18.93
2018-05-17T19:49:38.824Z,18.78
2018-05-17T19:52:06.897Z,18.60
2018-05-17T19:54:34.310Z,18.64
2018-05-17T19:57:01.683Z,18.64
2018-05-17T19:59:29.119Z,18.75
2018-05-17T20:01:56.455Z,18.56
2018-05-17T20:04:23.900Z,18.70
2018-05-17T20:06:51.275Z,18.39
2018-05-17T20:09:18.673Z,18.57
2018-05-17T20:11:46.064Z,18.17
2018-05-17T20:14:13.454Z,18.30
2018-05-17T20:16:40.885Z,18.30
2018-05-17T20:19:08.240Z,18.41
2018-05-17T20:21:35.625Z,18.42
2018-05-17T20:24:03.015Z,18.18
2018-05-17T20:26:30.402Z,18.04
2018-05-17T20:28:57.876Z,18.26
2018-05-17T20:31:25.263Z,18.25
2018-05-17T20:33:52.960Z,17.80
2018-05-17T20:36:20.448Z,18.32
2018-05-17T20:38:47.850Z,18.19
2018-05-17T20:41:15.272Z,18.10
2018-05-17T20:43:42.664Z,18.04
2018-05-17T20:46:10.054Z,17.92
2018-05-17T20:48:37.441Z,18.26
2018-05-17T20:51:04.889Z,18.18
2018-05-17T20:53:32.351Z,17.91
2018-05-17T20:55:59.740Z,17.85
2018-05-17T20:58:27.186Z,17.65
2018-05-17T21:00:54.590Z,18.00
2018-05-17T21:03:21.980Z,18.10
2018-05-17T21:05:49.359Z,17.35
2018-05-17T21:08:16.754Z,17.73
2018-05-17T21:10:44.243Z,17.67
2018-05-17T21:13:11.698Z,17.89
2018-05-17T21:15:39.154Z,17.79
2018-05-17T21:18:07.339Z,17.80
2018-05-17T21:20:34.720Z,17.67
2018-05-17T21:23:02.110Z,17.85
2018-05-17T21:25:29.505Z,17.96
2018-05-17T21:27:56.886Z,17.96
2018-05-17T21:30:24.265Z,17.68
2018-05-17T21:32:51.650Z,17.81
2018-05-17T21:35:19.079Z,17.68
2018-05-17T21:37:46.466Z,17.89
2018-05-17T21:40:13.855Z,17.73
2018-05-17T21:42:41.252Z,17.36
2018-05-17T21:45:08.644Z,17.57
2018-05-17T21:47:36.129Z,17.56
2018-05-17T21:50:03.582Z,17.73
2018-05-17T21:52:31.032Z,17.39
2018-05-17T21:54:58.435Z,17.32
2018-05-17T21:57:25.813Z,17.49
2018-05-17T21:59:53.444Z,17.24
2018-05-17T22:02:20.996Z,16.97
2018-05-17T22:04:48.371Z,17.24
2018-05-17T22:07:15.773Z,17.31
2018-05-17T22:09:48.547Z,17.26
2018-05-17T22:12:15.930Z,17.59
2018-05-17T22:14:43.716Z,17.23
2018-05-17T22:17:11.145Z,17.06
2018-05-17T22:19:38.527Z,17.28
2018-05-17T22:22:05.918Z,17.18
2018-05-17T22:24:33.308Z,17.24
2018-05-17T22:27:00.776Z,16.78
2018-05-17T22:29:28.228Z,17.17
2018-05-17T22:31:55.612Z,16.92
2018-05-17T22:34:23.004Z,17.10
2018-05-17T22:36:50.422Z,16.94
2018-05-17T22:39:17.774Z,16.76
2018-05-17T22:41:45.317Z,16.71
2018-05-17T22:44:12.703Z,16.89
2018-05-17T22:46:40.339Z,16.78
2018-05-17T22:49:07.737Z,16.89
2018-05-17T22:51:35.176Z,17.23
2018-05-17T22:54:02.556Z,16.38
2018-05-17T22:56:41.882Z,16.41
2018-05-17T22:59:09.280Z,16.26
2018-05-17T23:01:37.705Z,16.58
2018-05-17T23:04:05.111Z,16.73
2018-05-17T23:06:32.526Z,16.59
2018-05-17T23:08:59.952Z,16.03
2018-05-17T23:11:27.344Z,16.15
2018-05-17T23:13:55.002Z,16.27
2018-05-17T23:16:22.508Z,16.55
2018-05-17T23:18:49.905Z,16.57
2018-05-17T23:21:17.286Z,15.88
2018-05-17T23:23:44.676Z,16.07
2018-05-17T23:26:12.051Z,16.17
2018-05-17T23:28:39.482Z,16.60
2018-05-17T23:31:07.897Z,16.09
2018-05-17T23:33:35.282Z,16.27
2018-05-17T23:36:02.702Z,16.45
2018-05-17T23:38:30.092Z,16.70
2018-05-17T23:41:10.179Z,16.28
2018-05-17T23:43:37.938Z,16.51
2018-05-17T23:46:05.319Z,16.29
2018-05-17T23:48:32.702Z,16.35
2018-05-17T23:51:00.095Z,16.44
2018-05-17T23:53:27.483Z,15.94
2018-05-17T23:55:54.865Z,15.85
2018-05-17T23:58:22.250Z,16.24
